createdAt,value
2018-12-31T00:02:20.443Z,102159.65
2018-12-31T00:04:48.651Z,102152.36
2018-12-31T00:07:16.842Z,102153.72
2018-12-31T00:09:45.074Z,102151.25
2018-12-31T00:12:13.280Z,102153.61
2018-12-31T00:14:41.511Z,102145.44
2018-12-31T00:17:09.703Z,102145.44
2018-12-31T00:19:37.967Z,102143.08
2018-12-31T00:22:06.164Z,102148.05
2018-12-31T00:24:34.380Z,102145.80
2018-12-31T00:27:02.629Z,102151.25
2018-12-31T00:29:30.819Z,102152.25
2018-12-31T00:31:59.027Z,102138.74
2018-12-31T00:34:27.251Z,102144.67
2018-12-31T00:36:55.497Z,102148.53
2018-12-31T00:39:23.691Z,102145.07
2018-12-31T00:41:51.932Z,102154.09
2018-12-31T00:44:20.139Z,102153.98
2018-12-31T00:46:48.375Z,102144.08
2018-12-31T00:49:16.578Z,102144.44
2018-12-31T00:51:44.775Z,102145.44
2018-12-31T00:54:12.994Z,102145.07
2018-12-31T00:56:41.238Z,102150.89
2018-12-31T00:59:09.432Z,102151.87
2018-12-31T01:01:37.645Z,102149.52
2018-12-31T01:04:05.874Z,102151.87
2018-12-31T01:06:34.108Z,102154.97
2018-12-31T01:09:02.310Z,102153.49
2018-12-31T01:11:30.512Z,102146.91
2018-12-31T01:13:58.742Z,102148.76
2018-12-31T01:16:26.939Z,102151.59
2018-12-31T01:18:55.167Z,102156.20
2018-12-31T01:21:23.400Z,102152.84
2018-12-31T01:23:51.604Z,102148.76
2018-12-31T01:26:19.794Z,102143.53
2018-12-31T01:28:48.026Z,102141.10
2018-12-31T01:31:16.250Z,102143.31
2018-12-31T01:33:44.447Z,102136.50
2018-12-31T01:36:12.677Z,102136.90
2018-12-31T01:38:40.889Z,102141.22
2018-12-31T01:41:09.207Z,102147.39
2018-12-31T01:43:37.410Z,102146.03
2018-12-31T01:46:05.649Z,102158.80
2018-12-31T01:48:33.860Z,102147.39
2018-12-31T01:51:02.065Z,102147.39
2018-12-31T01:53:30.294Z,102143.71
2018-12-31T01:55:58.496Z,102141.36
2018-12-31T01:58:26.729Z,102136.90
2018-12-31T02:00:54.945Z,102134.18
2018-12-31T02:03:23.185Z,102135.42
2018-12-31T02:05:51.401Z,102140.22
2018-12-31T02:08:19.620Z,102135.66
2018-12-31T02:10:47.839Z,102133.78
2018-12-31T02:13:16.046Z,102137.38
2018-12-31T02:15:44.267Z,102137.38
2018-12-31T02:18:12.459Z,102133.78
2018-12-31T02:20:40.706Z,102136.50
2018-12-31T02:23:08.910Z,102136.50
2018-12-31T02:25:37.104Z,102138.37
2018-12-31T02:28:05.328Z,102146.03
2018-12-31T02:30:33.515Z,102144.30
2018-12-31T02:33:01.738Z,102147.03
2018-12-31T02:35:29.954Z,102140.11
2018-12-31T02:37:58.164Z,102142.72
2018-12-31T02:40:26.376Z,102140.22
2018-12-31T02:42:54.672Z,102141.58
2018-12-31T02:45:22.903Z,102141.22
2018-12-31T02:47:51.096Z,102140.81
2018-12-31T02:50:19.312Z,102137.98
2018-12-31T02:52:47.546Z,102138.86
2018-12-31T02:55:15.748Z,102133.53
2018-12-31T02:57:43.952Z,102131.05
2018-12-31T03:00:12.187Z,102135.25
2018-12-31T03:02:40.385Z,102129.08
2018-12-31T03:05:08.624Z,102118.01
2018-12-31T03:07:36.836Z,102110.86
2018-12-31T03:10:05.228Z,102112.22
2018-12-31T03:12:33.442Z,102114.46
2018-12-31T03:15:01.661Z,102114.09
2018-12-31T03:17:29.870Z,102112.73
2018-12-31T03:19:58.100Z,102113.70
2018-12-31T03:22:26.306Z,102112.22
2018-12-31T03:24:54.537Z,102110.86
2018-12-31T03:27:22.741Z,102114.83
2018-12-31T03:29:50.963Z,102112.22
2018-12-31T03:32:19.164Z,102112.98
2018-12-31T03:34:47.396Z,102113.58
2018-12-31T03:37:15.608Z,102113.98
2018-12-31T03:39:43.841Z,102107.54
2018-12-31T03:42:12.062Z,102108.53
2018-12-31T03:44:40.272Z,102105.81
2018-12-31T03:47:08.507Z,102107.17
2018-12-31T03:49:36.710Z,102106.29
2018-12-31T03:52:04.932Z,102100.25
2018-12-31T03:54:33.124Z,102101.21
2018-12-31T03:57:01.371Z,102093.67
2018-12-31T03:59:29.605Z,102092.91
2018-12-31T04:01:57.832Z,102099.48
2018-12-31T04:04:26.031Z,102099.48
2018-12-31T04:06:54.263Z,102096.76
2018-12-31T04:09:22.469Z,102100.25
2018-12-31T04:11:50.705Z,102101.09
2018-12-31T04:14:18.899Z,102094.29
2018-12-31T04:16:47.110Z,102095.66
2018-12-31T04:19:15.305Z,102099.37
2018-12-31T04:21:43.528Z,102100.73
2018-12-31T04:24:11.752Z,102103.45
2018-12-31T04:26:39.953Z,102093.67
2018-12-31T04:29:08.172Z,102097.64
2018-12-31T04:31:36.405Z,102090.83
2018-12-31T04:34:04.640Z,102095.40
2018-12-31T04:36:32.844Z,102095.77
2018-12-31T04:39:01.042Z,102098.89
2018-12-31T04:41:29.257Z,102102.45
2018-12-31T04:43:57.477Z,102104.81
2018-12-31T04:46:25.718Z,102111.63
2018-12-31T04:48:53.911Z,102108.42
2018-12-31T04:51:22.158Z,102101.73
2018-12-31T04:53:50.376Z,102096.76
2018-12-31T04:56:18.594Z,102099.25
2018-12-31T04:58:46.815Z,102101.50
2018-12-31T05:01:15.008Z,102098.48
2018-12-31T05:03:43.236Z,102097.41
2018-12-31T05:06:11.463Z,102096.41
2018-12-31T05:08:39.672Z,102092.81
2018-12-31T05:11:07.869Z,102092.56
2018-12-31T05:13:36.104Z,102092.20
2018-12-31T05:16:04.308Z,102094.92
2018-12-31T05:18:32.545Z,102097.89
2018-12-31T05:21:00.749Z,102095.17
2018-12-31T05:23:28.958Z,102098.77
2018-12-31T05:25:57.163Z,102098.77
2018-12-31T05:28:25.371Z,102100.61
2018-12-31T05:30:53.603Z,102106.55
2018-12-31T05:33:21.827Z,102106.06
2018-12-31T05:35:50.009Z,102111.03
2018-12-31T05:38:18.237Z,102106.42
2018-12-31T05:40:46.435Z,102111.03
2018-12-31T05:43:14.669Z,102112.87
2018-12-31T05:45:42.861Z,102117.20
2018-12-31T05:48:11.079Z,102116.24
2018-12-31T05:50:39.301Z,102121.06
2018-12-31T05:53:07.523Z,102127.14
2018-12-31T05:55:35.749Z,102126.14
2018-12-31T05:58:03.944Z,102129.75
2018-12-31T06:00:32.838Z,102125.15
2018-12-31T06:03:01.035Z,102135.56
2018-12-31T06:05:29.249Z,102132.84
2018-12-31T06:07:57.442Z,102122.42
2018-12-31T06:10:25.646Z,102132.59
2018-12-31T06:12:53.880Z,102135.80
2018-12-31T06:15:22.075Z,102139.88
2018-12-31T06:17:50.300Z,102135.80
2018-12-31T06:20:18.531Z,102138.03
2018-12-31T06:22:46.767Z,102137.52
2018-12-31T06:25:14.962Z,102138.03
2018-12-31T06:27:43.180Z,102144.84
2018-12-31T06:30:11.423Z,102153.86
2018-12-31T06:32:39.621Z,102158.34
2018-12-31T06:35:07.848Z,102156.11
2018-12-31T06:37:36.059Z,102158.83
2018-12-31T06:40:04.655Z,102163.39
2018-12-31T06:42:32.844Z,102149.66
2018-12-31T06:45:01.074Z,102154.27
2018-12-31T06:47:29.282Z,102151.54
2018-12-31T06:49:57.510Z,102149.66
2018-12-31T06:52:25.736Z,102152.91
2018-12-31T06:54:53.934Z,102156.98
2018-12-31T06:57:22.153Z,102159.31
2018-12-31T06:59:50.722Z,102162.44
2018-12-31T07:02:18.951Z,102166.52
2018-12-31T07:04:47.144Z,102171.20
2018-12-31T07:07:15.346Z,102172.08
2018-12-31T07:09:43.567Z,102177.41
2018-12-31T07:12:11.765Z,102180.62
2018-12-31T07:14:40.000Z,102186.95
2018-12-31T07:17:08.224Z,102192.87
2018-12-31T07:19:36.437Z,102191.52
2018-12-31T07:22:04.636Z,102184.34
2018-12-31T07:24:32.836Z,102192.39
2018-12-31T07:27:01.064Z,102196.73
2018-12-31T07:29:29.263Z,102203.17
2018-12-31T07:31:57.494Z,102200.45
2018-12-31T07:34:25.680Z,102198.32
2018-12-31T07:36:53.912Z,102196.37
2018-12-31T07:39:22.112Z,102204.54
2018-12-31T07:41:50.328Z,102204.54
2018-12-31T07:44:18.539Z,102210.47
2018-12-31T07:46:46.774Z,102216.03
2018-12-31T07:49:14.995Z,102204.66
2018-12-31T07:51:43.252Z,102210.58
2018-12-31T07:54:11.445Z,102218.38
2018-12-31T07:56:39.639Z,102213.30
2018-12-31T07:59:07.872Z,102217.39
2018-12-31T08:01:36.060Z,102224.56
2018-12-31T08:04:04.271Z,102221.84
2018-12-31T08:06:32.502Z,102227.80
2018-12-31T08:09:00.707Z,102229.28
2018-12-31T08:11:28.920Z,102229.16
2018-12-31T08:13:57.133Z,102235.46
2018-12-31T08:16:25.356Z,102243.27
2018-12-31T08:18:53.658Z,102239.55
2018-12-31T08:21:21.887Z,102243.04
2018-12-31T08:23:50.082Z,102236.23
2018-12-31T08:26:18.311Z,102235.75
2018-12-31T08:28:46.502Z,102238.47
2018-12-31T08:31:14.730Z,102240.43
2018-12-31T08:33:42.926Z,102238.47
2018-12-31T08:36:11.152Z,102246.36
2018-12-31T08:38:39.360Z,102249.48
2018-12-31T08:41:07.568Z,102255.41
2018-12-31T08:43:35.800Z,102251.33
2018-12-31T08:46:04.027Z,102256.66
2018-12-31T08:48:32.261Z,102254.16
2018-12-31T08:51:00.487Z,102254.81
2018-12-31T08:53:28.717Z,102250.84
2018-12-31T08:55:56.923Z,102247.61
2018-12-31T08:58:25.177Z,102241.31
2018-12-31T09:00:53.342Z,102247.13
2018-12-31T09:03:21.535Z,102244.41
2018-12-31T09:05:49.765Z,102243.81
2018-12-31T09:08:17.959Z,102251.98
2018-12-31T09:10:46.205Z,102250.63
2018-12-31T09:13:14.434Z,102251.58
2018-12-31T09:15:42.659Z,102248.38
2018-12-31T09:18:10.866Z,102250.63
2018-12-31T09:20:39.071Z,102246.02
2018-12-31T09:23:07.297Z,102243.30
2018-12-31T09:25:35.511Z,102243.81
2018-12-31T09:28:03.735Z,102247.13
2018-12-31T09:30:31.955Z,102251.58
2018-12-31T09:33:00.140Z,102246.76
2018-12-31T09:35:28.367Z,102247.49
2018-12-31T09:37:56.562Z,102248.86
2018-12-31T09:40:24.805Z,102248.86
2018-12-31T09:42:53.013Z,102248.01
2018-12-31T09:45:21.242Z,102247.49
2018-12-31T09:47:49.458Z,102240.09
2018-12-31T09:50:17.835Z,102240.20
2018-12-31T09:52:46.028Z,102244.41
2018-12-31T09:55:14.233Z,102250.22
2018-12-31T09:57:42.449Z,102244.41
2018-12-31T10:00:10.653Z,102243.41
2018-12-31T10:02:38.869Z,102244.77
2018-12-31T10:05:07.074Z,102242.45
2018-12-31T10:07:35.298Z,102243.81
2018-12-31T10:10:03.535Z,102250.73
2018-12-31T10:12:31.745Z,102248.86
2018-12-31T10:14:59.947Z,102244.29
2018-12-31T10:17:28.170Z,102249.63
2018-12-31T10:19:56.395Z,102246.90
2018-12-31T10:22:24.629Z,102246.90
2018-12-31T10:24:52.856Z,102241.94
2018-12-31T10:27:21.071Z,102244.77
2018-12-31T10:29:49.264Z,102245.17
2018-12-31T10:32:17.478Z,102245.17
2018-12-31T10:34:45.784Z,102241.45
2018-12-31T10:37:13.925Z,102240.09
2018-12-31T10:39:42.139Z,102236.00
2018-12-31T10:42:10.346Z,102230.19
2018-12-31T10:44:38.585Z,102227.47
2018-12-31T10:47:06.779Z,102231.92
2018-12-31T10:49:35.009Z,102234.64
2018-12-31T10:52:03.216Z,102225.22
2018-12-31T10:54:31.447Z,102215.69
2018-12-31T10:56:59.675Z,102217.53
2018-12-31T10:59:27.888Z,102213.96
2018-12-31T11:01:56.107Z,102221.62
2018-12-31T11:04:24.355Z,102218.89
2018-12-31T11:06:52.558Z,102216.05
2018-12-31T11:09:20.787Z,102208.28
2018-12-31T11:11:48.994Z,102206.05
2018-12-31T11:14:17.223Z,102206.05
2018-12-31T11:16:45.501Z,102207.88
2018-12-31T11:19:13.688Z,102208.77
2018-12-31T11:21:41.909Z,102207.52
2018-12-31T11:24:10.122Z,102211.01
2018-12-31T11:26:38.324Z,102203.31
2018-12-31T11:29:06.563Z,102206.41
2018-12-31T11:31:34.770Z,102197.27
2018-12-31T11:34:02.984Z,102196.88
2018-12-31T11:36:32.494Z,102184.62
2018-12-31T11:39:00.880Z,102173.84
2018-12-31T11:41:29.092Z,102171.11
2018-12-31T11:43:57.312Z,102169.75
2018-12-31T11:46:25.499Z,102174.23
2018-12-31T11:48:53.724Z,102169.63
2018-12-31T11:51:21.934Z,102172.36
2018-12-31T11:53:50.160Z,102168.27
2018-12-31T11:56:18.368Z,102165.44
2018-12-31T11:58:46.566Z,102163.99
2018-12-31T12:01:14.798Z,102149.60
2018-12-31T12:03:43.018Z,102155.42
2018-12-31T12:06:11.276Z,102155.42
2018-12-31T12:08:39.462Z,102153.09
2018-12-31T12:11:07.684Z,102154.06
2018-12-31T12:13:35.895Z,102146.77
2018-12-31T12:16:04.133Z,102147.84
2018-12-31T12:18:32.365Z,102146.28
2018-12-31T12:21:00.578Z,102148.50
2018-12-31T12:23:28.805Z,102138.11
2018-12-31T12:25:57.006Z,102132.03
2018-12-31T12:28:25.238Z,102130.67
2018-12-31T12:30:53.441Z,102127.10
2018-12-31T12:33:21.671Z,102133.03
2018-12-31T12:35:49.895Z,102134.75
2018-12-31T12:38:18.469Z,102137.23
2018-12-31T12:40:46.696Z,102135.75
2018-12-31T12:43:14.893Z,102134.39
2018-12-31T12:45:43.114Z,102137.23
2018-12-31T12:48:11.297Z,102141.56
2018-12-31T12:50:39.523Z,102142.20
2018-12-31T12:53:07.719Z,102137.11
2018-12-31T12:55:35.919Z,102136.23
2018-12-31T12:58:04.145Z,102131.19
2018-12-31T13:00:32.344Z,102132.03
2018-12-31T13:03:00.559Z,102137.11
2018-12-31T13:05:28.761Z,102137.00
2018-12-31T13:07:56.986Z,102135.16
2018-12-31T13:10:25.188Z,102139.61
2018-12-31T13:12:53.422Z,102137.77
2018-12-31T13:15:21.616Z,102132.31
2018-12-31T13:17:49.844Z,102130.95
2018-12-31T13:20:18.056Z,102134.05
2018-12-31T13:22:46.296Z,102135.41
2018-12-31T13:25:14.518Z,102137.77
2018-12-31T13:27:42.718Z,102129.95
2018-12-31T13:30:11.226Z,102132.80
2018-12-31T13:32:39.425Z,102134.16
2018-12-31T13:35:07.650Z,102136.41
2018-12-31T13:37:35.928Z,102127.72
2018-12-31T13:40:04.738Z,102137.88
2018-12-31T13:42:32.942Z,102140.97
2018-12-31T13:45:01.160Z,102138.25
2018-12-31T13:47:29.404Z,102137.37
2018-12-31T13:49:57.612Z,102139.24
2018-12-31T13:52:25.810Z,102143.33
2018-12-31T13:54:54.022Z,102149.14
2018-12-31T13:57:22.238Z,102145.05
2018-12-31T13:59:50.488Z,102145.54
2018-12-31T14:02:18.714Z,102144.06
2018-12-31T14:04:46.958Z,102145.54
2018-12-31T14:07:15.161Z,102146.30
2018-12-31T14:09:43.400Z,102145.94
2018-12-31T14:12:11.594Z,102151.39
2018-12-31T14:14:39.806Z,102150.39
2018-12-31T14:17:08.028Z,102155.47
2018-12-31T14:19:36.242Z,102163.53
2018-12-31T14:22:04.724Z,102156.32
2018-12-31T14:24:33.033Z,102155.84
2018-12-31T14:27:01.278Z,102160.41
2018-12-31T14:29:29.494Z,102165.01
2018-12-31T14:31:57.724Z,102166.85
2018-12-31T14:34:26.233Z,102164.50
2018-12-31T14:36:54.460Z,102165.13
2018-12-31T14:39:22.695Z,102169.46
2018-12-31T14:41:50.914Z,102179.88
2018-12-31T14:44:19.110Z,102175.02
2018-12-31T14:46:47.326Z,102180.84
2018-12-31T14:49:15.556Z,102174.55
2018-12-31T14:51:43.757Z,102181.47
2018-12-31T14:54:12.002Z,102179.59
2018-12-31T14:56:40.198Z,102179.48
2018-12-31T14:59:08.412Z,102183.20
2018-12-31T15:01:36.626Z,102179.48
2018-12-31T15:04:04.847Z,102185.92
2018-12-31T15:06:33.076Z,102187.66
2018-12-31T15:09:02.669Z,102190.38
2018-12-31T15:11:31.004Z,102189.64
2018-12-31T15:13:59.520Z,102186.41
2018-12-31T15:16:27.746Z,102191.00
2018-12-31T15:18:55.968Z,102189.75
2018-12-31T15:21:24.172Z,102196.45
2018-12-31T15:23:52.423Z,102191.97
2018-12-31T15:26:20.998Z,102185.67
2018-12-31T15:28:49.230Z,102180.11
2018-12-31T15:31:17.469Z,102188.28
2018-12-31T15:33:45.714Z,102187.40
2018-12-31T15:36:13.908Z,102188.65
2018-12-31T15:38:42.104Z,102183.80
2018-12-31T15:41:10.318Z,102182.43
2018-12-31T15:43:38.532Z,102178.75
2018-12-31T15:46:06.768Z,102187.77
2018-12-31T15:48:34.964Z,102188.28
2018-12-31T15:51:03.210Z,102186.03
2018-12-31T15:53:31.804Z,102192.37
2018-12-31T15:56:00.020Z,102193.22
2018-12-31T15:58:28.272Z,102192.84
2018-12-31T16:00:56.499Z,102201.02
2018-12-31T16:03:24.709Z,102199.17
2018-12-31T16:05:52.942Z,102205.11
2018-12-31T16:08:21.150Z,102202.38
2018-12-31T16:10:49.374Z,102206.95
2018-12-31T16:13:17.598Z,102202.38
2018-12-31T16:15:46.307Z,102209.08
2018-12-31T16:18:14.740Z,102208.71
2018-12-31T16:20:42.928Z,102201.50
2018-12-31T16:23:11.231Z,102203.37
2018-12-31T16:25:39.437Z,102209.96
2018-12-31T16:28:07.688Z,102206.36
2018-12-31T16:30:35.879Z,102201.79
2018-12-31T16:33:04.393Z,102202.27
2018-12-31T16:35:32.635Z,102200.91
2018-12-31T16:38:00.853Z,102200.02
2018-12-31T16:40:29.053Z,102210.55
2018-12-31T16:42:57.279Z,102211.80
2018-12-31T16:45:25.486Z,102210.44
2018-12-31T16:47:53.714Z,102204.62
2018-12-31T16:50:21.916Z,102212.17
2018-12-31T16:52:50.151Z,102197.30
2018-12-31T16:55:18.350Z,102201.91
2018-12-31T16:57:46.581Z,102196.81
2018-12-31T17:00:14.785Z,102198.55
2018-12-31T17:02:43.021Z,102203.63
2018-12-31T17:05:11.225Z,102204.52
2018-12-31T17:07:39.429Z,102202.64
2018-12-31T17:10:09.295Z,102203.63
2018-12-31T17:12:37.784Z,102198.66
2018-12-31T17:15:06.262Z,102202.75
2018-12-31T17:17:34.465Z,102198.18
2018-12-31T17:20:02.706Z,102200.91
2018-12-31T17:22:30.897Z,102204.00
2018-12-31T17:24:59.137Z,102201.67
2018-12-31T17:27:27.353Z,102209.08
2018-12-31T17:29:55.631Z,102208.71
2018-12-31T17:32:23.839Z,102211.91
2018-12-31T17:34:52.048Z,102211.44
2018-12-31T17:37:20.291Z,102210.44
2018-12-31T17:39:48.865Z,102204.52
2018-12-31T17:42:17.084Z,102213.05
2018-12-31T17:44:45.296Z,102211.69
2018-12-31T17:47:13.518Z,102210.44
2018-12-31T17:49:41.799Z,102206.05
2018-12-31T17:52:10.023Z,102206.63
2018-12-31T17:54:38.251Z,102207.17
2018-12-31T17:57:06.461Z,102204.22
2018-12-31T17:59:34.693Z,102200.54
2018-12-31T18:02:02.901Z,102201.02
2018-12-31T18:04:31.115Z,102211.80
2018-12-31T18:06:59.591Z,102210.81
2018-12-31T18:09:27.821Z,102206.72
2018-12-31T18:11:56.064Z,102217.14
2018-12-31T18:14:24.303Z,102216.26
2018-12-31T18:16:52.512Z,102216.66
2018-12-31T18:19:21.116Z,102218.73
2018-12-31T18:21:49.325Z,102214.16
2018-12-31T18:24:17.528Z,102212.69
2018-12-31T18:26:45.757Z,102215.89
2018-12-31T18:29:13.975Z,102220.34
2018-12-31T18:31:42.185Z,102228.04
2018-12-31T18:34:10.400Z,102230.51
2018-12-31T18:36:38.627Z,102229.14
2018-12-31T18:39:07.195Z,102241.77
2018-12-31T18:41:35.422Z,102234.08
2018-12-31T18:44:03.627Z,102240.89
2018-12-31T18:46:32.149Z,102244.02
2018-12-31T18:49:00.349Z,102244.50
2018-12-31T18:51:28.574Z,102246.63
2018-12-31T18:53:56.775Z,102251.08
2018-12-31T18:56:24.993Z,102245.62
2018-12-31T18:58:53.199Z,102250.09
2018-12-31T19:01:21.438Z,102249.35
2018-12-31T19:03:49.645Z,102246.99
2018-12-31T19:06:17.854Z,102243.50
2018-12-31T19:08:46.158Z,102244.38
2018-12-31T19:11:14.364Z,102253.44
2018-12-31T19:13:42.593Z,102248.36
2018-12-31T19:16:10.797Z,102255.28
2018-12-31T19:18:39.034Z,102249.35
2018-12-31T19:21:07.251Z,102249.35
2018-12-31T19:23:35.469Z,102250.83
2018-12-31T19:26:03.772Z,102249.83
2018-12-31T19:28:32.004Z,102253.03
2018-12-31T19:31:00.213Z,102255.65
2018-12-31T19:33:28.460Z,102251.56
2018-12-31T19:35:56.679Z,102255.65
2018-12-31T19:38:24.884Z,102249.72
2018-12-31T19:40:53.088Z,102241.06
2018-12-31T19:43:21.299Z,102251.97
2018-12-31T19:45:49.553Z,102244.64
2018-12-31T19:48:17.758Z,102235.62
2018-12-31T19:50:45.959Z,102233.73
2018-12-31T19:53:14.592Z,102236.46
2018-12-31T19:55:42.797Z,102232.12
2018-12-31T19:58:11.906Z,102235.22
2018-12-31T20:00:40.131Z,102233.73
2018-12-31T20:03:08.319Z,102228.30
2018-12-31T20:05:36.551Z,102225.20
2018-12-31T20:08:04.758Z,102228.30
2018-12-31T20:10:34.585Z,102221.11
2018-12-31T20:13:02.962Z,102216.66
2018-12-31T20:15:31.174Z,102216.55
2018-12-31T20:17:59.420Z,102204.28
2018-12-31T20:20:27.932Z,102205.53
2018-12-31T20:22:56.156Z,102207.97
2018-12-31T20:25:24.396Z,102209.22
2018-12-31T20:27:52.610Z,102206.49
2018-12-31T20:30:20.845Z,102204.66
2018-12-31T20:32:49.061Z,102206.37
2018-12-31T20:35:17.436Z,102205.53
2018-12-31T20:37:45.622Z,102203.77
2018-12-31T20:40:13.849Z,102201.56
2018-12-31T20:42:42.062Z,102201.05
2018-12-31T20:45:10.298Z,102203.77
2018-12-31T20:47:38.514Z,102198.84
2018-12-31T20:50:07.364Z,102193.39
2018-12-31T20:52:35.591Z,102196.00
2018-12-31T20:55:03.965Z,102202.41
2018-12-31T20:57:32.191Z,102191.51
2018-12-31T21:00:00.581Z,102192.98
2018-12-31T21:02:28.886Z,102197.36
2018-12-31T21:04:57.090Z,102185.33
2018-12-31T21:07:25.404Z,102193.87
2018-12-31T21:09:53.628Z,102187.54
2018-12-31T21:12:21.822Z,102192.02
2018-12-31T21:14:50.032Z,102183.33
2018-12-31T21:17:18.539Z,102185.95
2018-12-31T21:19:46.752Z,102184.10
2018-12-31T21:22:14.947Z,102188.19
2018-12-31T21:24:43.174Z,102185.46
2018-12-31T21:27:11.375Z,102180.02
2018-12-31T21:29:39.593Z,102180.50
2018-12-31T21:32:07.832Z,102174.56
2018-12-31T21:34:36.038Z,102178.28
2018-12-31T21:37:04.271Z,102182.26
2018-12-31T21:39:32.456Z,102174.69
2018-12-31T21:42:00.659Z,102175.05
2018-12-31T21:44:29.263Z,102173.69
2018-12-31T21:46:57.466Z,102175.56
2018-12-31T21:49:25.692Z,102176.05
2018-12-31T21:51:53.912Z,102173.69
2018-12-31T21:54:22.105Z,102180.38
2018-12-31T21:56:50.331Z,102176.41
2018-12-31T21:59:18.543Z,102184.98
2018-12-31T22:01:46.772Z,102185.95
2018-12-31T22:04:15.049Z,102184.10
2018-12-31T22:06:43.258Z,102189.07
2018-12-31T22:09:11.482Z,102180.50
2018-12-31T22:11:39.696Z,102184.47
2018-12-31T22:14:07.927Z,102188.55
2018-12-31T22:16:36.141Z,102189.55
2018-12-31T22:19:04.408Z,102190.91
2018-12-31T22:21:32.607Z,102195.37
2018-12-31T22:24:00.799Z,102196.36
2018-12-31T22:26:29.199Z,102189.55
2018-12-31T22:28:57.439Z,102192.16
2018-12-31T22:31:25.668Z,102191.68
2018-12-31T22:33:53.872Z,102186.83
2018-12-31T22:36:22.109Z,102181.38
2018-12-31T22:38:50.311Z,102178.17
2018-12-31T22:41:18.501Z,102173.69
2018-12-31T22:43:46.735Z,102174.09
2018-12-31T22:46:14.963Z,102168.64
2018-12-31T22:48:43.163Z,102171.84
2018-12-31T22:51:11.430Z,102170.96
2018-12-31T22:53:39.663Z,102169.88
2018-12-31T22:56:07.876Z,102171.24
2018-12-31T22:58:36.112Z,102172.09
2018-12-31T23:01:04.330Z,102172.20
2018-12-31T23:03:32.560Z,102174.94
2018-12-31T23:06:01.138Z,102161.31
2018-12-31T23:08:29.338Z,102160.94
2018-12-31T23:10:57.592Z,102161.31
2018-12-31T23:13:26.534Z,102163.19
2018-12-31T23:15:54.736Z,102169.48
2018-12-31T23:18:22.960Z,102169.59
2018-12-31T23:20:51.158Z,102168.64
2018-12-31T23:23:19.390Z,102166.88
2018-12-31T23:25:47.617Z,102159.58
2018-12-31T23:28:15.856Z,102160.06
2018-12-31T23:30:44.079Z,102155.13
2018-12-31T23:33:12.568Z,102165.52
2018-12-31T23:35:40.794Z,102156.48
2018-12-31T23:38:09.005Z,102162.30
2018-12-31T23:40:37.242Z,102162.78
2018-12-31T23:43:06.593Z,102167.75
2018-12-31T23:45:35.137Z,102156.61
2018-12-31T23:48:03.378Z,102158.45
2018-12-31T23:50:31.591Z,102167.39
2018-12-31T23:52:59.820Z,102159.22
2018-12-31T23:55:28.046Z,102154.73
2018-12-31T23:57:56.239Z,102156.48
